Pagina principale
METAR-TAF:

METAR-TAF

Aeroporti :

Aeroporto di Palermo-Punta Raisi

Palermo, Italia

latitudine: 38-11N, longitudine: 013-06E, altezza: 21 m

Osservazione

Il bollettino è stato emesso 31 minuti fa, alle 17:20 UTC
Vento 17 kt da est/nord-est
Temperature 15°C
Umidità 59%
Pressione 1017 hPa
Visibilità 10 km o più

METAR: LICJ 141720Z AUTO 06017KT 9999 NCD 15/07 Q1017

Ora: 19:51 (17:51 UTC)

Previsione

Il bollettino è stato emesso 51 minuti fa, alle 17:00 UTC
Previsione valida dal 14 alle 18 UTC al 15 alle 18 UTC
Vento 14 kt da nord-est
Visibilità 10 km o più
Poco nuvoloso ad un'altezza di 3000 ft
Evoluzione graduale
dal 14 alle 18 UTC al 14 alle 20 UTC
Vento 6 kt da sud
Temporaneamente
dal 15 alle 10 UTC al 15 alle 18 UTC
rovesci di pioggia
Evoluzione graduale
dal 15 alle 10 UTC al 15 alle 12 UTC
Vento 14 kt da nord-est

TAF: LICJ 141700Z 1418/1518 05014KT 9999 FEW030 BECMG 1418/1420 18006KT TEMPO 1510/1518 SHRA BECMG 1510/1512 05014KT

Osservazioni e previsioni meteorologiche di più di 4000 aeroporti (messaggi METAR e TAF).

Le stazioni disponibili sono rappresentate dai dischi gialli e rossi sulla carta.

Puntare il mouse per vedere il nome della stazione.

Clicca sopra per visualizzare le osservazioni e previsioni meteorologiche.

Per cambiare la mappa : fare clic sui pulsanti verdi con una croce nera per ingrandire, il pulsante verde con un trattino per diminuire, o sulla freccia verde per le mappe adiacenti.


METAR-TAF: